Time;durP1;ratioP1;P1;durP2;ratioP2;P2;SDS_P1;SDS_P2;PMS_P1;PMS_P2;Temp;Humidity;BMP_temperature;BMP_pressure;BME280_temperature;BME280_humidity;BME280_pressure;Samples;Min_cycle;Max_cycle;Signal;HPM_P1;HPM_P2
2022/04/15 00:00:09;;;;;;;0.40;0.40;;;15.00;99.90;;;15.64;nan;101237.00;5009656;28;24433;-73
2022/04/15 00:02:36;;;;;;;0.40;0.40;;;15.00;99.90;;;15.58;nan;101237.53;4994694;28;25028;-73
2022/04/15 00:05:29;;;;;;;0.70;0.70;;;15.00;99.90;;;15.49;nan;101232.06;4971262;28;24441;-73
2022/04/15 00:07:51;;;;;;;0.50;0.50;;;15.00;99.90;;;15.44;nan;101231.59;4970733;28;24453;-73
2022/04/15 00:10:19;;;;;;;0.60;0.60;;;14.90;99.90;;;15.40;nan;101235.41;4976074;28;24472;-73
2022/04/15 00:12:46;;;;;;;0.40;0.40;;;14.80;99.90;;;15.39;nan;101236.41;4977767;28;24450;-74
2022/04/15 00:15:14;;;;;;;0.43;0.40;;;14.90;99.90;;;15.38;nan;101242.59;4963275;28;24445;-73
2022/04/15 00:17:42;;;;;;;0.90;0.90;;;14.80;99.90;;;15.30;nan;101236.31;4973858;28;24432;-73
2022/04/15 00:20:23;;;;;;;0.40;0.30;;;14.70;99.90;;;15.31;nan;101236.16;4987708;28;24468;-67
2022/04/15 00:22:52;;;;;;;0.40;0.40;;;14.70;99.90;;;15.25;nan;101238.47;4990168;28;24520;-66
2022/04/15 00:25:19;;;;;;;2.90;1.00;;;14.70;99.90;;;15.30;nan;101237.16;5009792;28;24448;-66
2022/04/15 00:27:51;;;;;;;0.40;0.30;;;14.70;99.90;;;15.20;nan;101241.50;5028791;28;24443;-66
2022/04/15 00:30:19;;;;;;;0.40;0.30;;;14.70;99.90;;;15.16;nan;101242.69;4987732;28;25030;-66
2022/04/15 00:32:46;;;;;;;0.40;0.30;;;14.60;99.90;;;15.14;nan;101241.16;4989792;28;24958;-66
2022/04/15 00:35:13;;;;;;;0.40;0.30;;;14.60;99.90;;;15.09;nan;101236.28;4990255;28;24456;-66
2022/04/15 00:37:40;;;;;;;0.50;0.50;;;14.50;99.90;;;15.06;nan;101241.75;4976044;28;24436;-66
2022/04/15 00:40:10;;;;;;;0.47;0.47;;;14.50;99.90;;;15.04;nan;101241.06;5024150;28;24456;-67
2022/04/15 00:42:37;;;;;;;0.50;0.50;;;14.50;99.90;;;15.03;nan;101239.41;5015730;28;24889;-68
2022/04/15 00:45:04;;;;;;;0.40;0.40;;;14.40;99.90;;;15.05;nan;101237.47;4988768;28;24985;-66
2022/04/15 00:47:53;;;;;;;0.60;0.60;;;14.50;99.90;;;15.05;nan;101241.91;4972126;28;25345;-66
2022/04/15 00:50:30;;;;;;;1.00;0.90;;;14.40;99.90;;;14.98;nan;101244.19;4988556;28;24561;-66
2022/04/15 00:53:00;;;;;;;1.00;0.60;;;14.40;99.90;;;14.94;nan;101234.03;4975932;28;24452;-66
2022/04/15 00:55:28;;;;;;;0.60;0.60;;;14.40;99.90;;;14.96;nan;101238.22;4970719;28;25090;-66
2022/04/15 00:57:58;;;;;;;0.82;0.82;;;14.40;99.90;;;14.93;nan;101237.63;4993520;28;24966;-66
2022/04/15 01:00:31;;;;;;;0.40;0.30;;;14.40;99.90;;;14.97;nan;101233.81;4978755;28;25062;-67
2022/04/15 01:03:00;;;;;;;0.40;0.30;;;14.40;99.90;;;14.98;nan;101238.94;4972877;28;21317;-66
2022/04/15 01:05:28;;;;;;;0.40;0.40;;;14.40;99.90;;;15.01;nan;101243.09;4973158;28;24468;-69
2022/04/15 01:07:57;;;;;;;1.30;1.20;;;14.40;99.90;;;15.04;nan;101241.06;4988098;28;24467;-67
2022/04/15 01:10:26;;;;;;;0.40;0.30;;;14.50;99.90;;;15.02;nan;101244.75;5007592;28;24444;-66
2022/04/15 01:12:56;;;;;;;0.40;0.40;;;14.50;99.90;;;15.05;nan;101245.38;4994902;28;24453;-67
2022/04/15 01:15:43;;;;;;;1.35;1.13;;;14.40;99.90;;;15.03;nan;101244.66;4997189;28;25013;-67
2022/04/15 01:18:10;;;;;;;6.20;1.20;;;14.40;99.90;;;15.02;nan;101245.59;4991683;28;24460;-66
2022/04/15 01:20:39;;;;;;;0.50;0.50;;;14.40;99.90;;;14.98;nan;101246.81;4993294;28;24440;-67
2022/04/15 01:23:07;;;;;;;0.80;0.80;;;14.40;99.90;;;14.91;nan;101244.78;4985945;28;24449;-67
2022/04/15 01:25:34;;;;;;;0.60;0.60;;;14.40;99.90;;;14.88;nan;101245.03;4975278;28;24453;-66
2022/04/15 01:28:02;;;;;;;0.50;0.50;;;14.30;99.90;;;14.88;nan;101247.66;4992234;28;24445;-67
2022/04/15 01:30:29;;;;;;;0.40;0.40;;;14.30;99.90;;;14.84;nan;101244.47;4975239;28;24465;-66
2022/04/15 01:32:56;;;;;;;0.40;0.30;;;14.20;99.90;;;14.77;nan;101253.78;4991923;28;24994;-66
2022/04/15 01:35:24;;;;;;;0.40;0.30;;;14.10;99.90;;;14.75;nan;101256.53;4977425;28;25061;-66
2022/04/15 01:37:51;;;;;;;0.40;0.30;;;14.10;99.90;;;14.72;nan;101250.69;5011610;28;24436;-66
2022/04/15 01:40:19;;;;;;;0.50;0.50;;;14.10;99.90;;;14.68;nan;101254.50;5009859;28;25030;-66
2022/04/15 01:42:47;;;;;;;0.40;0.30;;;14.10;99.90;;;14.61;nan;101263.81;5002734;28;24443;-67
2022/04/15 01:45:15;;;;;;;0.30;0.30;;;14.00;99.90;;;14.53;nan;101259.19;4988877;28;20203;-67
2022/04/15 01:47:42;;;;;;;0.30;0.30;;;13.90;99.90;;;14.40;nan;101261.09;4994482;28;20645;-67
2022/04/15 01:50:10;;;;;;;0.40;0.40;;;13.80;99.90;;;14.38;nan;101256.91;5000220;28;21240;-66
2022/04/15 01:52:38;;;;;;;0.30;0.30;;;13.80;99.90;;;14.36;nan;101264.06;5004274;28;20634;-66
2022/04/15 01:55:05;;;;;;;0.30;0.30;;;13.70;99.90;;;14.32;nan;101263.47;4989054;28;20644;-66
2022/04/15 01:57:32;;;;;;;0.30;0.30;;;13.70;99.90;;;14.17;nan;101266.41;5024634;28;20636;-66
2022/04/15 01:59:59;;;;;;;0.30;0.30;;;13.60;99.90;;;14.10;nan;101267.84;4980860;28;20657;-66
2022/04/15 02:02:26;;;;;;;0.30;0.30;;;13.50;99.90;;;14.07;nan;101262.81;4992664;28;20983;-66
2022/04/15 02:04:54;;;;;;;0.40;0.30;;;13.50;99.90;;;14.05;nan;101269.97;4990632;28;25087;-66
2022/04/15 02:07:21;;;;;;;0.50;0.50;;;13.40;99.90;;;14.01;nan;101275.44;5010270;28;24447;-67
2022/04/15 02:09:48;;;;;;;0.40;0.40;;;13.40;99.90;;;13.93;nan;101272.56;5002812;28;25058;-66
2022/04/15 02:12:15;;;;;;;0.43;0.43;;;13.30;99.90;;;13.91;nan;101269.25;4989288;28;24978;-66
2022/04/15 02:14:42;;;;;;;1.58;1.15;;;13.30;99.90;;;13.92;nan;101275.31;5000976;28;24455;-66
2022/04/15 02:17:09;;;;;;;0.50;0.50;;;13.30;99.90;;;13.95;nan;101280.31;4990356;28;24464;-67
2022/04/15 02:19:36;;;;;;;0.40;0.30;;;13.40;99.90;;;13.96;nan;101272.34;4981138;28;24914;-66
2022/04/15 02:22:03;;;;;;;0.40;0.30;;;13.40;99.90;;;14.02;nan;101281.53;5008650;28;24440;-66
2022/04/15 02:24:30;;;;;;;0.50;0.50;;;13.40;99.90;;;14.05;nan;101275.22;4990766;28;24870;-66
2022/04/15 02:26:57;;;;;;;1.27;1.20;;;13.50;99.90;;;14.03;nan;101281.41;4992606;28;24438;-66
2022/04/15 02:29:24;;;;;;;0.40;0.40;;;13.50;99.90;;;14.06;nan;101284.75;4972877;28;24463;-66
2022/04/15 02:31:51;;;;;;;0.40;0.30;;;13.50;99.90;;;14.04;nan;101279.63;4973294;28;24544;-67
2022/04/15 02:34:18;;;;;;;1.40;0.80;;;13.50;99.90;;;14.03;nan;101281.41;4992462;28;24508;-66
2022/04/15 02:36:45;;;;;;;0.40;0.35;;;13.50;99.90;;;14.09;nan;101285.38;4980275;28;24433;-66
2022/04/15 02:39:12;;;;;;;0.40;0.30;;;13.50;99.90;;;14.10;nan;101286.22;4973605;28;24456;-66
2022/04/15 02:41:41;;;;;;;0.47;0.47;;;13.50;99.90;;;14.10;nan;101286.22;4957227;28;24918;-66
2022/04/15 02:44:08;;;;;;;0.40;0.40;;;13.50;99.90;;;14.10;nan;101283.59;4990711;28;25052;-67
2022/04/15 02:46:36;;;;;;;0.40;0.40;;;13.50;99.90;;;14.10;nan;101284.41;4988300;28;24819;-66
2022/04/15 02:49:04;;;;;;;0.60;0.60;;;13.50;99.90;;;14.12;nan;101281.69;4996409;28;24464;-66
2022/04/15 02:51:31;;;;;;;0.40;0.30;;;13.60;99.90;;;14.08;nan;101283.69;4988154;28;24456;-67
2022/04/15 02:53:58;;;;;;;0.80;0.80;;;13.50;99.90;;;14.11;nan;101285.25;4972837;28;24444;-66
2022/04/15 02:56:25;;;;;;;0.40;0.30;;;13.60;99.90;;;14.12;nan;101284.31;5011794;28;24454;-66
2022/04/15 02:58:52;;;;;;;0.40;0.40;;;13.60;99.90;;;14.12;nan;101281.69;5016468;28;24455;-67
2022/04/15 03:01:20;;;;;;;0.80;0.70;;;13.60;99.90;;;14.11;nan;101280.84;5002468;28;24449;-66
2022/04/15 03:03:47;;;;;;;0.60;0.60;;;13.50;99.90;;;14.10;nan;101280.97;4995945;28;25034;-67
2022/04/15 03:06:14;;;;;;;0.40;0.30;;;13.50;99.90;;;14.03;nan;101284.03;5010872;28;24490;-66
2022/04/15 03:08:41;;;;;;;1.70;0.80;;;13.50;99.90;;;14.03;nan;101289.28;5028399;28;24447;-67
2022/04/15 03:11:08;;;;;;;1.27;1.27;;;13.50;99.90;;;14.01;nan;101288.56;4984443;28;24452;-67
2022/04/15 03:13:35;;;;;;;0.73;0.73;;;13.40;99.90;;;14.05;nan;101280.47;4989568;28;24452;-66
2022/04/15 03:16:04;;;;;;;0.60;0.60;;;13.40;99.90;;;14.06;nan;101287.38;4997297;28;24449;-67
2022/04/15 03:18:31;;;;;;;0.40;0.40;;;13.50;99.90;;;14.06;nan;101277.72;5014472;28;24498;-67
2022/04/15 03:20:58;;;;;;;0.40;0.40;;;13.50;99.90;;;14.01;nan;101283.31;5010225;28;24956;-67
2022/04/15 03:23:25;;;;;;;0.50;0.50;;;13.40;99.90;;;13.93;nan;101282.22;4985094;28;24507;-67
2022/04/15 03:25:52;;;;;;;0.90;0.90;;;13.40;99.90;;;13.85;nan;101284.59;4990162;28;24449;-67
2022/04/15 03:28:19;;;;;;;2.20;0.80;;;13.30;99.90;;;13.85;nan;101285.44;4975100;28;24459;-67
2022/04/15 03:30:46;;;;;;;0.40;0.37;;;13.20;99.90;;;13.79;nan;101274.56;5002991;28;24468;-67
2022/04/15 03:33:13;;;;;;;0.40;0.40;;;13.20;99.90;;;13.69;nan;101278.84;4990467;28;24560;-66
2022/04/15 03:35:40;;;;;;;0.40;0.30;;;13.10;99.90;;;13.70;nan;101276.09;5004506;28;24452;-67
2022/04/15 03:38:07;;;;;;;0.40;0.35;;;13.10;99.90;;;13.70;nan;101288.38;5001928;28;24822;-67
2022/04/15 03:40:34;;;;;;;0.80;0.80;;;13.10;99.90;;;13.63;nan;101282.75;4990286;28;24685;-67
2022/04/15 03:43:03;;;;;;;0.40;0.40;;;13.10;99.90;;;13.59;nan;101283.06;4974347;28;24448;-66
2022/04/15 03:45:31;;;;;;;1.20;0.60;;;13.00;99.90;;;13.62;nan;101283.72;4990483;28;24456;-66
2022/04/15 03:47:58;;;;;;;0.40;0.30;;;13.00;99.90;;;13.60;nan;101287.38;4990852;28;25014;-67
2022/04/15 03:50:25;;;;;;;0.43;0.43;;;13.00;99.90;;;13.63;nan;101293.22;4979730;28;24462;-67
2022/04/15 03:52:53;;;;;;;0.40;0.40;;;13.10;99.90;;;13.56;nan;101284.16;4971229;28;24464;-67
2022/04/15 03:55:22;;;;;;;0.40;0.30;;;13.00;99.90;;;13.49;nan;101285.56;4977715;28;24479;-67
2022/04/15 03:57:50;;;;;;;0.52;0.52;;;13.00;99.90;;;13.46;nan;101293.63;4975730;28;24444;-67
2022/04/15 04:00:18;;;;;;;1.40;1.13;;;12.90;99.90;;;13.47;nan;101294.47;4990097;28;24467;-66
2022/04/15 04:02:49;;;;;;;0.40;0.40;;;12.90;99.90;;;13.43;nan;101293.88;4986906;28;24452;-67
2022/04/15 04:05:16;;;;;;;1.00;1.00;;;12.90;99.90;;;13.40;nan;101293.25;4973228;28;24503;-67
2022/04/15 04:07:44;;;;;;;1.10;1.10;;;12.90;99.90;;;13.40;nan;101299.34;5008718;28;24459;-67
2022/04/15 04:10:12;;;;;;;0.40;0.35;;;12.90;99.90;;;13.40;nan;101295.88;5000181;28;24461;-67
2022/04/15 04:12:40;;;;;;;0.40;0.40;;;12.90;99.90;;;13.38;nan;101297.75;4989533;28;24452;-67
2022/04/15 04:15:09;;;;;;;0.50;0.50;;;12.80;99.90;;;13.30;nan;101300.97;4985925;28;24528;-67
2022/04/15 04:17:36;;;;;;;0.50;0.50;;;12.80;99.90;;;13.23;nan;101307.59;4991672;28;24819;-66
2022/04/15 04:20:06;;;;;;;0.40;0.40;;;12.70;99.90;;;13.13;nan;101306.56;4990936;28;24445;-66
2022/04/15 04:22:36;;;;;;;0.40;0.30;;;12.60;99.90;;;13.09;nan;101303.34;5003753;28;24483;-67
2022/04/15 04:25:08;;;;;;;2.10;1.10;;;12.60;99.90;;;13.09;nan;101311.22;5008633;28;24436;-66
2022/04/15 04:27:37;;;;;;;0.40;0.30;;;12.60;99.90;;;13.05;nan;101314.16;4992914;28;24815;-66
2022/04/15 04:30:06;;;;;;;1.03;0.93;;;12.50;99.90;;;13.00;nan;101311.84;4968579;28;24464;-67
2022/04/15 04:32:33;;;;;;;0.60;0.60;;;12.50;99.90;;;13.07;nan;101315.72;4985098;28;24453;-67
2022/04/15 04:35:01;;;;;;;2.80;1.80;;;12.50;99.90;;;13.16;nan;101317.66;4993716;28;24827;-67
2022/04/15 04:37:28;;;;;;;0.50;0.50;;;12.60;99.90;;;13.17;nan;101329.84;4979434;28;25093;-66
2022/04/15 04:39:55;;;;;;;0.70;0.70;;;12.60;99.90;;;13.18;nan;101334.13;4988856;28;24456;-67
2022/04/15 04:42:23;;;;;;;0.40;0.30;;;12.60;99.90;;;13.21;nan;101336.53;4971665;28;24448;-66
2022/04/15 04:44:52;;;;;;;1.00;1.00;;;12.70;99.90;;;13.28;nan;101333.47;4978015;28;24455;-67
2022/04/15 04:47:20;;;;;;;0.40;0.40;;;12.70;99.90;;;13.32;nan;101330.50;4991193;28;24455;-66
2022/04/15 04:49:48;;;;;;;0.60;0.60;;;12.80;99.90;;;13.33;nan;101337.41;5011368;28;24456;-66
2022/04/15 04:52:15;;;;;;;0.40;0.30;;;12.80;99.90;;;13.39;nan;101350.09;5000210;28;24503;-66
2022/04/15 04:54:43;;;;;;;1.20;1.20;;;12.90;99.90;;;13.44;nan;101347.16;5011309;28;24455;-67
2022/04/15 04:57:10;;;;;;;0.90;0.90;;;13.00;99.90;;;13.52;nan;101343.00;4984503;28;24467;-67
2022/04/15 04:59:37;;;;;;;0.40;0.40;;;13.10;99.90;;;13.63;nan;101353.53;4976072;28;24831;-67
2022/04/15 05:02:04;;;;;;;0.60;0.60;;;13.20;99.90;;;13.72;nan;101355.50;4990328;28;24480;-67
2022/04/15 05:04:31;;;;;;;0.80;0.80;;;13.30;99.90;;;13.86;nan;101362.38;4991941;28;24455;-68
2022/04/15 05:06:58;;;;;;;0.40;0.30;;;13.40;99.90;;;13.96;nan;101361.56;5005726;28;24456;-68
2022/04/15 05:09:25;;;;;;;1.10;1.10;;;13.60;99.90;;;14.12;nan;101374.34;4986458;28;24456;-67
2022/04/15 05:11:52;;;;;;;0.90;0.88;;;13.70;99.90;;;14.13;nan;101370.78;4993359;28;24448;-66
2022/04/15 05:14:19;;;;;;;0.40;0.40;;;13.80;99.90;;;14.27;nan;101369.78;4991865;28;24452;-66
2022/04/15 05:16:46;;;;;;;0.40;0.40;;;13.90;99.90;;;14.34;nan;101371.84;4977254;28;24444;-67
2022/04/15 05:19:13;;;;;;;1.20;1.00;;;14.00;99.90;;;14.52;nan;101373.03;4980754;28;24823;-66
2022/04/15 05:21:41;;;;;;;0.40;0.30;;;14.20;99.90;;;14.70;nan;101381.31;4998795;28;25389;-67
2022/04/15 05:24:09;;;;;;;0.60;0.60;;;14.40;99.90;;;14.75;nan;101379.16;4988520;28;24452;-66
2022/04/15 05:26:37;;;;;;;0.50;0.50;;;14.50;99.90;;;14.77;nan;101385.97;4985893;28;24447;-66
2022/04/15 05:29:04;;;;;;;0.40;0.30;;;14.50;99.90;;;15.13;nan;101377.00;4988900;28;24453;-66
2022/04/15 05:31:31;;;;;;;0.90;0.90;;;14.90;99.90;;;15.12;nan;101390.28;4998418;28;24473;-69
2022/04/15 05:33:58;;;;;;;1.00;0.70;;;15.10;99.90;;;15.13;nan;101384.03;4979887;28;24464;-67
2022/04/15 05:36:25;;;;;;;0.80;0.80;;;15.00;99.90;;;15.13;nan;101384.03;4995207;28;24432;-67
2022/04/15 05:38:52;;;;;;;0.57;0.57;;;15.00;99.90;;;15.39;nan;101383.66;5008262;28;25452;-68
2022/04/15 05:41:19;;;;;;;0.40;0.30;;;15.30;99.90;;;15.78;nan;101386.69;5000662;28;24822;-68
2022/04/15 05:43:46;;;;;;;0.60;0.60;;;15.80;99.90;;;16.10;nan;101393.59;5007523;28;24440;-68
2022/04/15 05:46:15;;;;;;;0.40;0.30;;;16.30;99.90;;;16.44;nan;101390.78;5027295;28;25075;-67
2022/04/15 05:48:42;;;;;;;0.30;0.30;;;16.70;99.90;;;16.80;nan;101385.84;5014007;28;20282;-68
2022/04/15 05:51:08;;;;;;;0.30;0.30;;;17.10;99.90;;;17.15;nan;101388.09;4982281;28;20824;-68
2022/04/15 05:53:35;;;;;;;0.50;0.50;;;17.50;99.90;;;17.51;nan;101399.84;5001960;28;20621;-68
2022/04/15 05:56:03;;;;;;;0.30;0.30;;;18.00;99.90;;;17.95;nan;101395.88;5016091;28;20675;-65
2022/04/15 05:58:30;;;;;;;0.30;0.30;;;18.70;99.90;;;18.24;nan;101408.09;4977538;28;20669;-67
2022/04/15 06:00:57;;;;;;;0.30;0.30;;;19.10;99.90;;;18.77;nan;101405.78;4993945;28;20668;-68
2022/04/15 06:03:24;;;;;;;0.30;0.30;;;19.60;99.90;;;19.21;nan;101420.06;5001765;28;20650;-67
2022/04/15 06:05:51;;;;;;;0.30;0.30;;;20.20;98.10;;;19.73;nan;101414.09;4978649;28;20640;-67
2022/04/15 06:08:18;;;;;;;0.30;0.30;;;20.80;96.80;;;20.23;nan;101416.22;5011432;28;20673;-67
2022/04/15 06:10:45;;;;;;;0.30;0.30;;;21.50;94.90;;;20.58;nan;101419.63;5008457;28;20672;-67
2022/04/15 06:13:19;;;;;;;0.30;0.30;;;22.00;92.70;;;20.54;nan;101417.44;5005154;28;20673;-67
2022/04/15 06:15:57;;;;;;;0.30;0.30;;;22.10;91.20;;;20.82;nan;101421.63;4996803;28;20643;-67
2022/04/15 06:20:56;;;;;;;0.30;0.30;;;22.40;89.40;;;21.40;nan;101419.91;4951169;28;20684;-71
2022/04/15 06:23:23;;;;;;;0.30;0.30;;;22.70;88.20;;;21.56;nan;101419.97;4955299;28;20635;-71
2022/04/15 06:25:50;;;;;;;0.40;0.40;;;23.20;85.50;;;22.35;nan;101430.03;4954392;28;20628;-71
2022/04/15 06:28:17;;;;;;;0.30;0.30;;;23.70;82.90;;;22.78;nan;101427.00;4953900;28;20651;-71
2022/04/15 06:30:44;;;;;;;0.30;0.30;;;24.30;80.10;;;23.30;nan;101437.97;4935038;29;20680;-71
2022/04/15 06:33:11;;;;;;;0.30;0.30;;;24.80;77.00;;;23.07;nan;101432.56;4941200;29;20632;-71
2022/04/15 06:35:39;;;;;;;0.50;0.50;;;24.90;75.30;;;23.85;nan;101440.53;4933942;29;20633;-71
2022/04/15 06:38:06;;;;;;;0.60;0.50;;;25.50;72.90;;;24.27;nan;101437.41;4963271;28;20635;-71
2022/04/15 06:40:35;;;;;;;0.30;0.30;;;25.80;71.20;;;24.68;nan;101442.19;4936547;29;20656;-71
2022/04/15 06:43:02;;;;;;;0.83;0.83;;;26.30;69.50;;;25.16;nan;101445.34;4947362;29;20640;-70
2022/04/15 06:45:29;;;;;;;0.30;0.30;;;26.80;67.10;;;25.30;nan;101442.66;4945250;29;20645;-66
2022/04/15 06:47:56;;;;;;;0.30;0.30;;;27.10;65.10;;;25.24;nan;101443.41;4941089;29;21239;-70
2022/04/15 06:50:24;;;;;;;0.30;0.30;;;27.40;63.70;;;25.56;nan;101439.53;4948165;29;20683;-68
2022/04/15 06:52:51;;;;;;;0.50;0.50;;;27.80;61.90;;;25.99;nan;101443.91;4952042;29;20640;-70
2022/04/15 06:55:19;;;;;;;0.30;0.30;;;27.90;61.50;;;26.71;nan;101454.41;4951780;29;20632;-70
2022/04/15 06:57:46;;;;;;;1.17;1.17;;;28.50;60.30;;;26.72;nan;101456.94;4951856;29;20636;-71
2022/04/15 07:00:13;;;;;;;0.30;0.30;;;28.90;58.80;;;26.57;nan;101458.84;4944694;29;20665;-71
2022/04/15 07:02:41;;;;;;;0.40;0.30;;;28.80;58.40;;;27.12;nan;101458.00;4935219;29;20645;-71
2022/04/15 07:05:09;;;;;;;0.40;0.40;;;29.40;57.30;;;26.52;nan;101461.28;4929831;29;20641;-71
2022/04/15 07:07:37;;;;;;;0.40;0.40;;;29.00;56.60;;;26.77;nan;101464.34;4932204;29;20637;-70
2022/04/15 07:10:10;;;;;;;0.30;0.30;;;28.90;56.70;;;26.90;nan;101465.28;4942589;28;20761;-70
2022/04/15 07:12:38;;;;;;;1.33;1.23;;;28.90;56.60;;;27.43;nan;101471.75;4946568;29;20648;-71
2022/04/15 07:15:06;;;;;;;0.30;0.30;;;29.10;56.00;;;27.74;nan;101463.22;4932857;28;20647;-71
2022/04/15 07:17:33;;;;;;;0.30;0.30;;;29.70;55.10;;;27.81;nan;101471.28;4949894;29;20648;-71
2022/04/15 07:20:00;;;;;;;1.80;1.70;;;29.70;54.90;;;28.37;nan;101468.09;4965823;28;20672;-72
2022/04/15 07:22:27;;;;;;;0.30;0.30;;;29.90;54.60;;;28.76;nan;101469.97;4946208;29;20632;-72
2022/04/15 07:24:54;;;;;;;0.40;0.40;;;30.30;53.60;;;28.92;nan;101472.19;4963707;28;20651;-71
2022/04/15 07:27:21;;;;;;;0.30;0.30;;;30.30;53.10;;;28.31;nan;101470.75;4941049;29;20632;-71
2022/04/15 07:29:48;;;;;;;0.30;0.30;;;30.00;53.00;;;28.39;nan;101470.56;4951303;29;20652;-71
2022/04/15 07:32:22;;;;;;;0.30;0.30;;;29.90;53.20;;;28.28;nan;101453.22;4938189;29;20637;-71
2022/04/15 07:34:50;;;;;;;0.30;0.30;;;29.60;53.60;;;28.24;nan;101461.88;4942606;29;21197;-71
2022/04/15 07:37:17;;;;;;;0.30;0.30;;;29.20;53.80;;;27.93;nan;101470.50;4945182;28;20651;-70
2022/04/15 07:39:44;;;;;;;0.30;0.30;;;28.50;54.80;;;27.59;nan;101470.59;4943383;29;20663;-71
2022/04/15 07:42:12;;;;;;;0.30;0.30;;;28.10;55.40;;;27.54;nan;101473.88;4930706;29;20633;-72
2022/04/15 07:44:41;;;;;;;0.30;0.30;;;28.00;55.60;;;27.49;nan;101476.31;4952873;28;20629;-68
2022/04/15 07:47:08;;;;;;;0.30;0.30;;;28.00;55.20;;;27.44;nan;101464.56;4935607;29;21245;-72
2022/04/15 07:49:35;;;;;;;0.30;0.30;;;28.00;55.20;;;27.29;nan;101477.25;4934520;29;21034;-73
2022/04/15 07:52:04;;;;;;;0.30;0.30;;;28.00;55.40;;;26.82;nan;101478.00;4932744;29;20673;-72
2022/04/15 07:54:32;;;;;;;0.90;0.90;;;27.90;55.20;;;27.68;nan;101480.94;4948614;29;20644;-70
2022/04/15 07:56:59;;;;;;;0.33;0.33;;;28.30;55.00;;;28.23;nan;101487.91;4932458;29;21199;-72
2022/04/15 07:59:27;;;;;;;0.30;0.30;;;28.60;54.60;;;27.67;nan;101484.66;4942892;29;20747;-72
2022/04/15 08:01:54;;;;;;;0.30;0.30;;;28.70;54.10;;;27.59;nan;101487.50;4951831;29;20636;-72
2022/04/15 08:04:21;;;;;;;0.30;0.30;;;28.30;54.80;;;27.01;nan;101482.66;4938160;29;20640;-72
2022/04/15 08:06:48;;;;;;;0.30;0.30;;;27.80;55.20;;;27.42;nan;101485.38;4950698;28;20640;-72
2022/04/15 08:09:19;;;;;;;0.40;0.40;;;28.00;55.40;;;26.64;nan;101474.97;4938373;29;20680;-72
2022/04/15 08:11:46;;;;;;;0.33;0.33;;;27.80;55.30;;;26.05;nan;101480.56;4943785;29;20679;-72
2022/04/15 08:14:13;;;;;;;1.23;0.83;;;27.20;56.80;;;26.58;nan;101481.91;4932367;29;20822;-71
2022/04/15 08:16:40;;;;;;;0.30;0.30;;;27.10;56.90;;;27.77;nan;101483.44;4933782;29;20697;-72
2022/04/15 08:19:07;;;;;;;0.30;0.30;;;28.20;55.10;;;28.47;nan;101491.03;4925309;29;21113;-72
2022/04/15 08:21:34;;;;;;;0.30;0.30;;;29.40;53.30;;;28.72;nan;101476.78;4927616;29;20650;-67
2022/04/15 08:24:01;;;;;;;0.30;0.30;;;29.90;52.40;;;28.38;nan;101482.34;4913188;29;20634;-69
2022/04/15 08:26:29;;;;;;;0.30;0.30;;;29.50;52.60;;;29.10;nan;101493.88;4915674;29;21202;-70
2022/04/15 08:28:56;;;;;;;0.33;0.33;;;29.80;52.20;;;29.61;nan;101490.41;4912634;29;20670;-70
2022/04/15 08:31:23;;;;;;;0.40;0.30;;;30.20;51.90;;;29.69;nan;101493.66;4918861;29;20670;-66
2022/04/15 08:33:51;;;;;;;0.30;0.30;;;30.50;51.40;;;29.10;nan;101496.56;4909418;29;20700;-69
2022/04/15 08:36:18;;;;;;;0.30;0.30;;;30.60;50.70;;;29.93;nan;101494.81;4934709;29;20649;-66
2022/04/15 08:38:45;;;;;;;0.40;0.40;;;30.70;50.80;;;30.84;nan;101498.66;4930244;29;20787;-66
2022/04/15 08:41:14;;;;;;;0.30;0.30;;;31.60;49.80;;;31.99;nan;101504.00;4927602;29;21247;-66
2022/04/15 08:43:42;;;;;;;0.40;0.40;;;33.30;48.10;;;31.96;nan;101509.03;4912847;29;20642;-66
2022/04/15 08:46:12;;;;;;;0.73;0.73;;;33.80;46.40;;;33.23;nan;101498.38;4922376;29;20717;-66
2022/04/15 08:48:49;;;;;;;0.37;0.37;;;35.00;45.10;;;32.70;nan;101500.41;4911922;29;20669;-67
2022/04/15 08:51:17;;;;;;;0.30;0.30;;;34.80;44.50;;;32.01;nan;101506.47;4932367;29;21052;-67
2022/04/15 08:53:46;;;;;;;0.40;0.40;;;33.70;45.30;;;31.01;nan;101498.94;4911138;29;20642;-70
2022/04/15 08:56:13;;;;;;;0.40;0.40;;;33.10;45.20;;;30.91;nan;101494.09;4937003;29;20649;-69
2022/04/15 08:58:40;;;;;;;0.30;0.30;;;32.60;46.00;;;31.80;nan;101513.16;4913054;29;20662;-69
2022/04/15 09:01:07;;;;;;;0.40;0.40;;;33.30;45.50;;;32.98;nan;101511.31;4914596;29;20637;-69
2022/04/15 09:03:36;;;;;;;1.10;1.00;;;35.10;43.80;;;32.81;nan;101507.69;4911149;29;20622;-70
2022/04/15 09:06:03;;;;;;;0.40;0.40;;;35.80;42.70;;;34.16;nan;101504.28;4911970;29;20649;-69
2022/04/15 09:08:29;;;;;;;0.40;0.40;;;37.00;41.80;;;34.35;nan;101503.00;4907786;29;20725;-67
2022/04/15 09:10:59;;;;;;;0.40;0.40;;;37.50;40.30;;;33.86;nan;101500.22;4921287;29;21273;-67
2022/04/15 09:13:30;;;;;;;0.77;0.77;;;37.10;40.80;;;33.52;nan;101502.00;4922258;29;21244;-68
2022/04/15 09:16:00;;;;;;;0.40;0.40;;;36.80;39.80;;;33.50;nan;101493.28;4927687;29;20637;-67
2022/04/15 09:18:37;;;;;;;0.30;0.30;;;36.10;40.40;;;34.63;nan;101504.81;4928439;29;20604;-67
2022/04/15 09:21:20;;;;;;;0.30;0.30;;;36.90;40.00;;;34.52;nan;101505.75;4942077;29;20648;-67
2022/04/15 09:23:55;;;;;;;0.40;0.40;;;37.20;39.00;;;34.24;nan;101508.50;4945983;29;21174;-67
2022/04/15 09:26:24;;;;;;;0.40;0.40;;;36.90;38.90;;;35.36;nan;101506.41;4931634;29;20679;-67
2022/04/15 09:28:53;;;;;;;0.40;0.40;;;38.20;38.50;;;34.09;nan;101497.41;4946508;29;20870;-67
2022/04/15 09:31:22;;;;;;;0.77;0.77;;;37.70;38.40;;;34.81;nan;101503.75;4942050;29;20667;-67
2022/04/15 09:34:02;;;;;;;0.40;0.40;;;37.50;38.50;;;33.42;nan;101499.84;4941313;29;20632;-69
2022/04/15 09:36:38;;;;;;;0.40;0.40;;;37.20;38.20;;;33.91;nan;101494.88;4934936;29;20637;-69
2022/04/15 09:39:11;;;;;;;0.37;0.37;;;37.10;38.20;;;33.76;nan;101490.00;4933244;29;20668;-69
2022/04/15 09:41:41;;;;;;;0.57;0.57;;;37.50;38.00;;;33.86;nan;101492.88;4948402;28;20641;-69
2022/04/15 09:44:12;;;;;;;0.30;0.30;;;36.90;38.40;;;33.87;nan;101499.94;4946787;29;20642;-69
2022/04/15 09:46:46;;;;;;;0.40;0.40;;;36.60;38.60;;;34.01;nan;101493.19;4937258;29;21022;-66
2022/04/15 09:49:14;;;;;;;0.50;0.50;;;36.20;38.80;;;33.60;nan;101486.19;4961966;28;20691;-70
2022/04/15 09:51:51;;;;;;;1.80;1.60;;;36.30;38.60;;;33.93;nan;101498.16;4945668;29;20672;-69
2022/04/15 09:54:24;;;;;;;0.40;0.40;;;36.50;38.40;;;34.22;nan;101489.75;4964942;28;21180;-69
2022/04/15 09:56:54;;;;;;;0.40;0.40;;;36.30;38.70;;;33.82;nan;101489.03;4946821;28;20625;-69
2022/04/15 09:59:25;;;;;;;0.50;0.50;;;36.50;38.90;;;33.86;nan;101487.47;4963531;28;20659;-65
2022/04/15 10:01:57;;;;;;;0.40;0.40;;;37.00;38.80;;;33.85;nan;101490.44;4949445;29;21018;-69
2022/04/15 10:04:26;;;;;;;0.40;0.40;;;37.50;38.10;;;34.04;nan;101484.59;4949917;29;20695;-66
2022/04/15 10:06:54;;;;;;;0.77;0.77;;;37.20;37.80;;;35.38;nan;101488.81;4948464;28;20932;-70
2022/04/15 10:09:24;;;;;;;0.40;0.40;;;37.90;37.50;;;35.31;nan;101487.38;4938651;29;20653;-66
2022/04/15 10:11:51;;;;;;;0.40;0.40;;;38.20;37.30;;;35.81;nan;101493.38;4944674;29;20660;-70
2022/04/15 10:14:21;;;;;;;0.40;0.40;;;38.70;37.00;;;35.47;nan;101487.31;4936280;29;20637;-69
2022/04/15 10:16:48;;;;;;;0.40;0.40;;;38.40;37.00;;;35.54;nan;101487.13;4936958;29;20633;-71
2022/04/15 10:19:15;;;;;;;0.43;0.43;;;38.30;37.10;;;34.42;nan;101489.28;4948634;29;20679;-70
2022/04/15 10:21:45;;;;;;;0.40;0.40;;;37.60;37.50;;;34.54;nan;101479.22;4949441;29;20644;-70
2022/04/15 10:24:13;;;;;;;0.40;0.40;;;37.40;37.40;;;33.07;nan;101482.91;4954265;28;21028;-66
2022/04/15 10:26:46;;;;;;;0.30;0.30;;;37.00;37.30;;;33.51;nan;101474.09;4954743;28;20633;-67
2022/04/15 10:29:13;;;;;;;0.40;0.40;;;36.60;37.40;;;33.89;nan;101473.47;4934767;29;21325;-68
2022/04/15 10:31:46;;;;;;;0.40;0.40;;;36.90;37.60;;;32.62;nan;101462.91;4945744;29;21043;-70